sensor_id;sensor_type;location;lat;lon;timestamp;temperature;humidity
26254;DHT22;53339;51.378;0.094;2023-01-05T00:01:10;11.40;81.50
26254;DHT22;53339;51.378;0.094;2023-01-05T00:03:39;11.50;81.30
26254;DHT22;53339;51.378;0.094;2023-01-05T00:06:14;11.50;81.40
26254;DHT22;53339;51.378;0.094;2023-01-05T00:08:41;11.50;81.70
26254;DHT22;53339;51.378;0.094;2023-01-05T00:11:12;11.50;81.40
26254;DHT22;53339;51.378;0.094;2023-01-05T00:13:58;11.50;80.90
26254;DHT22;53339;51.378;0.094;2023-01-05T00:16:45;11.60;80.90
26254;DHT22;53339;51.378;0.094;2023-01-05T00:19:32;11.50;81.10
26254;DHT22;53339;51.378;0.094;2023-01-05T00:22:20;11.50;81.50
26254;DHT22;53339;51.378;0.094;2023-01-05T00:27:38;11.50;81.30
26254;DHT22;53339;51.378;0.094;2023-01-05T00:30:07;11.50;81.40
26254;DHT22;53339;51.378;0.094;2023-01-05T00:32:35;11.50;80.70
26254;DHT22;53339;51.378;0.094;2023-01-05T00:35:04;11.60;80.30
26254;DHT22;53339;51.378;0.094;2023-01-05T00:37:35;11.60;80.10
26254;DHT22;53339;51.378;0.094;2023-01-05T00:40:10;11.60;80.10
26254;DHT22;53339;51.378;0.094;2023-01-05T00:42:38;11.60;80.30
26254;DHT22;53339;51.378;0.094;2023-01-05T00:45:07;11.60;80.20
26254;DHT22;53339;51.378;0.094;2023-01-05T00:47:35;11.60;80.10
26254;DHT22;53339;51.378;0.094;2023-01-05T00:50:04;11.60;79.80
26254;DHT22;53339;51.378;0.094;2023-01-05T00:52:31;11.60;80.20
26254;DHT22;53339;51.378;0.094;2023-01-05T00:54:59;11.50;80.20
26254;DHT22;53339;51.378;0.094;2023-01-05T00:57:27;11.50;80.60
26254;DHT22;53339;51.378;0.094;2023-01-05T00:59:55;11.50;80.70
26254;DHT22;53339;51.378;0.094;2023-01-05T01:02:22;11.40;80.80
26254;DHT22;53339;51.378;0.094;2023-01-05T01:04:50;11.40;80.50
26254;DHT22;53339;51.378;0.094;2023-01-05T01:07:18;11.40;81.00
26254;DHT22;53339;51.378;0.094;2023-01-05T01:09:45;11.40;80.50
26254;DHT22;53339;51.378;0.094;2023-01-05T01:12:13;11.30;81.10
26254;DHT22;53339;51.378;0.094;2023-01-05T01:14:40;11.30;80.80
26254;DHT22;53339;51.378;0.094;2023-01-05T01:17:08;11.20;80.60
26254;DHT22;53339;51.378;0.094;2023-01-05T01:19:35;11.20;80.70
26254;DHT22;53339;51.378;0.094;2023-01-05T01:22:03;11.20;80.60
26254;DHT22;53339;51.378;0.094;2023-01-05T01:24:32;11.20;81.10
26254;DHT22;53339;51.378;0.094;2023-01-05T01:27:00;11.20;81.20
26254;DHT22;53339;51.378;0.094;2023-01-05T01:29:27;11.10;81.50
26254;DHT22;53339;51.378;0.094;2023-01-05T01:31:55;11.10;80.90
26254;DHT22;53339;51.378;0.094;2023-01-05T01:34:23;11.10;81.50
26254;DHT22;53339;51.378;0.094;2023-01-05T01:36:53;11.10;81.80
26254;DHT22;53339;51.378;0.094;2023-01-05T01:39:24;11.10;81.70
26254;DHT22;53339;51.378;0.094;2023-01-05T01:41:57;11.10;81.50
26254;DHT22;53339;51.378;0.094;2023-01-05T01:45:22;11.10;81.80
26254;DHT22;53339;51.378;0.094;2023-01-05T01:47:54;11.10;81.80
26254;DHT22;53339;51.378;0.094;2023-01-05T01:50:27;11.20;82.00
26254;DHT22;53339;51.378;0.094;2023-01-05T01:53:02;11.10;82.00
26254;DHT22;53339;51.378;0.094;2023-01-05T01:55:32;11.20;82.10
26254;DHT22;53339;51.378;0.094;2023-01-05T01:58:04;11.10;81.60
26254;DHT22;53339;51.378;0.094;2023-01-05T02:00:33;11.20;81.80
26254;DHT22;53339;51.378;0.094;2023-01-05T02:03:01;11.20;81.60
26254;DHT22;53339;51.378;0.094;2023-01-05T02:05:31;11.20;81.90
26254;DHT22;53339;51.378;0.094;2023-01-05T02:07:59;11.20;81.90
26254;DHT22;53339;51.378;0.094;2023-01-05T02:10:41;11.20;81.50
26254;DHT22;53339;51.378;0.094;2023-01-05T02:16:51;11.20;81.60
26254;DHT22;53339;51.378;0.094;2023-01-05T02:19:25;11.20;81.70
26254;DHT22;53339;51.378;0.094;2023-01-05T02:36:13;11.10;81.60
26254;DHT22;53339;51.378;0.094;2023-01-05T02:38:48;11.10;81.90
26254;DHT22;53339;51.378;0.094;2023-01-05T02:42:10;11.10;82.10
26254;DHT22;53339;51.378;0.094;2023-01-05T02:44:15;11.10;82.10
26254;DHT22;53339;51.378;0.094;2023-01-05T02:47:02;11.10;81.60
26254;DHT22;53339;51.378;0.094;2023-01-05T02:49:38;11.10;82.00
26254;DHT22;53339;51.378;0.094;2023-01-05T02:52:09;11.20;81.50
26254;DHT22;53339;51.378;0.094;2023-01-05T02:54:47;11.10;82.20
26254;DHT22;53339;51.378;0.094;2023-01-05T02:57:21;11.10;82.10
26254;DHT22;53339;51.378;0.094;2023-01-05T03:02:44;11.10;82.10
26254;DHT22;53339;51.378;0.094;2023-01-05T03:05:21;11.00;82.20
26254;DHT22;53339;51.378;0.094;2023-01-05T03:07:51;11.00;82.40
26254;DHT22;53339;51.378;0.094;2023-01-05T03:10:21;11.00;82.70
26254;DHT22;53339;51.378;0.094;2023-01-05T03:13:20;10.90;82.40
26254;DHT22;53339;51.378;0.094;2023-01-05T03:16:10;10.90;83.00
26254;DHT22;53339;51.378;0.094;2023-01-05T03:18:40;10.90;83.10
26254;DHT22;53339;51.378;0.094;2023-01-05T03:21:28;10.90;83.00
26254;DHT22;53339;51.378;0.094;2023-01-05T03:23:59;10.90;83.10
26254;DHT22;53339;51.378;0.094;2023-01-05T03:26:51;10.90;83.40
26254;DHT22;53339;51.378;0.094;2023-01-05T03:29:37;10.80;83.00
26254;DHT22;53339;51.378;0.094;2023-01-05T03:32:25;10.90;82.80
26254;DHT22;53339;51.378;0.094;2023-01-05T03:35:18;10.90;83.20
26254;DHT22;53339;51.378;0.094;2023-01-05T03:40:50;10.90;82.90
26254;DHT22;53339;51.378;0.094;2023-01-05T03:43:20;10.90;83.00
26254;DHT22;53339;51.378;0.094;2023-01-05T03:45:52;10.80;83.00
26254;DHT22;53339;51.378;0.094;2023-01-05T03:48:24;10.70;82.80
26254;DHT22;53339;51.378;0.094;2023-01-05T03:50:54;10.70;83.10
26254;DHT22;53339;51.378;0.094;2023-01-05T03:53:23;10.70;82.80
26254;DHT22;53339;51.378;0.094;2023-01-05T03:55:51;10.60;83.30
26254;DHT22;53339;51.378;0.094;2023-01-05T03:58:19;10.60;83.40
26254;DHT22;53339;51.378;0.094;2023-01-05T04:00:48;10.60;83.80
26254;DHT22;53339;51.378;0.094;2023-01-05T04:03:19;10.50;83.70
26254;DHT22;53339;51.378;0.094;2023-01-05T04:05:51;10.50;83.80
26254;DHT22;53339;51.378;0.094;2023-01-05T04:08:19;10.40;83.90
26254;DHT22;53339;51.378;0.094;2023-01-05T04:10:47;10.40;84.10
26254;DHT22;53339;51.378;0.094;2023-01-05T04:13:15;10.40;83.90
26254;DHT22;53339;51.378;0.094;2023-01-05T04:15:43;10.30;84.10
26254;DHT22;53339;51.378;0.094;2023-01-05T04:18:12;10.30;84.50
26254;DHT22;53339;51.378;0.094;2023-01-05T04:20:39;10.30;84.50
26254;DHT22;53339;51.378;0.094;2023-01-05T04:23:08;10.20;84.50
26254;DHT22;53339;51.378;0.094;2023-01-05T04:25:36;10.20;84.60
26254;DHT22;53339;51.378;0.094;2023-01-05T04:28:13;10.30;84.60
26254;DHT22;53339;51.378;0.094;2023-01-05T04:30:43;10.20;84.70
26254;DHT22;53339;51.378;0.094;2023-01-05T04:33:11;10.20;84.50
26254;DHT22;53339;51.378;0.094;2023-01-05T04:35:39;10.20;84.80
26254;DHT22;53339;51.378;0.094;2023-01-05T04:38:07;10.20;84.70
26254;DHT22;53339;51.378;0.094;2023-01-05T04:40:34;10.20;84.90
26254;DHT22;53339;51.378;0.094;2023-01-05T04:43:03;10.20;84.70
26254;DHT22;53339;51.378;0.094;2023-01-05T04:45:33;10.10;84.90
26254;DHT22;53339;51.378;0.094;2023-01-05T04:48:01;10.10;85.10
26254;DHT22;53339;51.378;0.094;2023-01-05T04:50:29;10.10;84.80
26254;DHT22;53339;51.378;0.094;2023-01-05T04:52:59;10.20;84.80
26254;DHT22;53339;51.378;0.094;2023-01-05T04:55:28;10.20;84.90
26254;DHT22;53339;51.378;0.094;2023-01-05T04:57:58;10.20;84.80
26254;DHT22;53339;51.378;0.094;2023-01-05T05:00:25;10.20;84.90
26254;DHT22;53339;51.378;0.094;2023-01-05T05:02:54;10.10;84.90
26254;DHT22;53339;51.378;0.094;2023-01-05T05:05:22;10.10;85.10
26254;DHT22;53339;51.378;0.094;2023-01-05T05:07:53;10.10;84.90
26254;DHT22;53339;51.378;0.094;2023-01-05T05:10:27;10.10;85.10
26254;DHT22;53339;51.378;0.094;2023-01-05T05:12:54;10.10;85.10
26254;DHT22;53339;51.378;0.094;2023-01-05T05:15:22;10.10;85.10
26254;DHT22;53339;51.378;0.094;2023-01-05T05:17:50;10.10;85.00
26254;DHT22;53339;51.378;0.094;2023-01-05T05:20:18;10.20;84.80
26254;DHT22;53339;51.378;0.094;2023-01-05T05:22:45;10.20;84.70
26254;DHT22;53339;51.378;0.094;2023-01-05T05:25:16;10.20;84.50
26254;DHT22;53339;51.378;0.094;2023-01-05T05:27:47;10.30;84.60
26254;DHT22;53339;51.378;0.094;2023-01-05T05:30:14;10.30;84.80
26254;DHT22;53339;51.378;0.094;2023-01-05T05:32:41;10.20;84.40
26254;DHT22;53339;51.378;0.094;2023-01-05T05:35:10;10.30;84.70
26254;DHT22;53339;51.378;0.094;2023-01-05T05:37:38;10.30;84.70
26254;DHT22;53339;51.378;0.094;2023-01-05T05:40:06;10.30;84.60
26254;DHT22;53339;51.378;0.094;2023-01-05T05:42:34;10.30;84.60
26254;DHT22;53339;51.378;0.094;2023-01-05T05:45:01;10.30;84.60
26254;DHT22;53339;51.378;0.094;2023-01-05T05:47:29;10.30;84.70
26254;DHT22;53339;51.378;0.094;2023-01-05T05:49:56;10.30;85.00
26254;DHT22;53339;51.378;0.094;2023-01-05T05:52:24;10.30;84.80
26254;DHT22;53339;51.378;0.094;2023-01-05T05:54:52;10.30;84.90
26254;DHT22;53339;51.378;0.094;2023-01-05T05:57:19;10.30;85.20
26254;DHT22;53339;51.378;0.094;2023-01-05T05:59:47;10.30;85.10
26254;DHT22;53339;51.378;0.094;2023-01-05T06:02:14;10.40;84.80
26254;DHT22;53339;51.378;0.094;2023-01-05T06:04:43;10.40;85.10
26254;DHT22;53339;51.378;0.094;2023-01-05T06:07:10;10.40;85.10
26254;DHT22;53339;51.378;0.094;2023-01-05T06:09:38;10.50;84.80
26254;DHT22;53339;51.378;0.094;2023-01-05T06:12:05;10.50;84.90
26254;DHT22;53339;51.378;0.094;2023-01-05T06:14:33;10.50;84.70
26254;DHT22;53339;51.378;0.094;2023-01-05T06:17:00;10.60;84.70
26254;DHT22;53339;51.378;0.094;2023-01-05T06:19:28;10.60;84.60
26254;DHT22;53339;51.378;0.094;2023-01-05T06:21:55;10.70;84.40
26254;DHT22;53339;51.378;0.094;2023-01-05T06:24:23;10.70;84.00
26254;DHT22;53339;51.378;0.094;2023-01-05T06:26:50;10.70;84.30
26254;DHT22;53339;51.378;0.094;2023-01-05T06:29:18;10.70;84.30
26254;DHT22;53339;51.378;0.094;2023-01-05T06:31:45;10.80;83.90
26254;DHT22;53339;51.378;0.094;2023-01-05T06:34:13;10.80;83.60
26254;DHT22;53339;51.378;0.094;2023-01-05T06:36:41;10.90;84.00
26254;DHT22;53339;51.378;0.094;2023-01-05T06:39:08;10.90;83.80
26254;DHT22;53339;51.378;0.094;2023-01-05T06:41:35;10.90;83.90
26254;DHT22;53339;51.378;0.094;2023-01-05T06:44:03;10.90;83.80
26254;DHT22;53339;51.378;0.094;2023-01-05T06:46:31;10.80;83.80
26254;DHT22;53339;51.378;0.094;2023-01-05T06:48:59;10.80;83.60
26254;DHT22;53339;51.378;0.094;2023-01-05T06:51:27;10.80;84.10
26254;DHT22;53339;51.378;0.094;2023-01-05T06:53:54;10.80;84.30
26254;DHT22;53339;51.378;0.094;2023-01-05T06:56:22;10.80;84.40
26254;DHT22;53339;51.378;0.094;2023-01-05T06:58:49;10.80;84.60
26254;DHT22;53339;51.378;0.094;2023-01-05T07:01:17;10.80;84.70
26254;DHT22;53339;51.378;0.094;2023-01-05T07:03:44;10.70;84.70
26254;DHT22;53339;51.378;0.094;2023-01-05T07:06:14;10.70;84.70
26254;DHT22;53339;51.378;0.094;2023-01-05T07:08:42;10.70;84.70
26254;DHT22;53339;51.378;0.094;2023-01-05T07:11:09;10.70;84.90
26254;DHT22;53339;51.378;0.094;2023-01-05T07:13:37;10.70;84.90
26254;DHT22;53339;51.378;0.094;2023-01-05T07:16:04;10.70;85.20
26254;DHT22;53339;51.378;0.094;2023-01-05T07:18:32;10.70;85.20
26254;DHT22;53339;51.378;0.094;2023-01-05T07:20:59;10.70;85.30
26254;DHT22;53339;51.378;0.094;2023-01-05T07:23:27;10.70;85.10
26254;DHT22;53339;51.378;0.094;2023-01-05T07:25:59;10.80;85.30
26254;DHT22;53339;51.378;0.094;2023-01-05T07:28:27;10.80;85.30
26254;DHT22;53339;51.378;0.094;2023-01-05T07:30:54;10.70;85.50
26254;DHT22;53339;51.378;0.094;2023-01-05T07:33:24;10.70;85.70
26254;DHT22;53339;51.378;0.094;2023-01-05T07:35:52;10.60;86.10
26254;DHT22;53339;51.378;0.094;2023-01-05T07:38:19;10.60;86.30
26254;DHT22;53339;51.378;0.094;2023-01-05T07:40:46;10.60;86.50
26254;DHT22;53339;51.378;0.094;2023-01-05T07:43:14;10.60;86.70
26254;DHT22;53339;51.378;0.094;2023-01-05T07:45:42;10.50;86.90
26254;DHT22;53339;51.378;0.094;2023-01-05T07:48:10;10.50;86.90
26254;DHT22;53339;51.378;0.094;2023-01-05T07:50:37;10.50;87.00
26254;DHT22;53339;51.378;0.094;2023-01-05T07:53:05;10.40;87.10
26254;DHT22;53339;51.378;0.094;2023-01-05T07:55:32;10.40;87.30
26254;DHT22;53339;51.378;0.094;2023-01-05T07:58:00;10.40;87.60
26254;DHT22;53339;51.378;0.094;2023-01-05T08:00:27;10.30;87.70
26254;DHT22;53339;51.378;0.094;2023-01-05T08:02:56;10.30;87.90
26254;DHT22;53339;51.378;0.094;2023-01-05T08:05:23;10.20;88.10
26254;DHT22;53339;51.378;0.094;2023-01-05T08:07:51;10.20;88.30
26254;DHT22;53339;51.378;0.094;2023-01-05T08:10:19;10.20;88.50
26254;DHT22;53339;51.378;0.094;2023-01-05T08:13:03;10.20;88.50
26254;DHT22;53339;51.378;0.094;2023-01-05T08:15:51;10.10;88.60
26254;DHT22;53339;51.378;0.094;2023-01-05T08:18:19;10.20;88.80
26254;DHT22;53339;51.378;0.094;2023-01-05T08:20:55;10.10;88.90
26254;DHT22;53339;51.378;0.094;2023-01-05T08:23:24;10.10;89.00
26254;DHT22;53339;51.378;0.094;2023-01-05T08:25:53;10.10;89.20
26254;DHT22;53339;51.378;0.094;2023-01-05T08:28:23;10.20;89.30
26254;DHT22;53339;51.378;0.094;2023-01-05T08:31:03;10.20;89.50
26254;DHT22;53339;51.378;0.094;2023-01-05T08:33:31;10.20;89.40
26254;DHT22;53339;51.378;0.094;2023-01-05T08:35:59;10.20;89.60
26254;DHT22;53339;51.378;0.094;2023-01-05T08:38:26;10.30;89.60
26254;DHT22;53339;51.378;0.094;2023-01-05T08:40:57;10.30;89.80
26254;DHT22;53339;51.378;0.094;2023-01-05T08:43:26;10.40;89.80
26254;DHT22;53339;51.378;0.094;2023-01-05T08:45:53;10.40;89.80
26254;DHT22;53339;51.378;0.094;2023-01-05T08:48:21;10.40;89.80
26254;DHT22;53339;51.378;0.094;2023-01-05T08:50:48;10.50;89.80
26254;DHT22;53339;51.378;0.094;2023-01-05T08:53:16;10.50;89.80
26254;DHT22;53339;51.378;0.094;2023-01-05T08:55:43;10.50;90.00
26254;DHT22;53339;51.378;0.094;2023-01-05T08:58:11;10.60;90.10
26254;DHT22;53339;51.378;0.094;2023-01-05T09:00:38;10.70;90.10
26254;DHT22;53339;51.378;0.094;2023-01-05T09:03:06;10.70;90.00
26254;DHT22;53339;51.378;0.094;2023-01-05T09:05:34;10.70;90.10
26254;DHT22;53339;51.378;0.094;2023-01-05T09:08:02;10.80;90.00
26254;DHT22;53339;51.378;0.094;2023-01-05T09:10:29;10.90;90.00
26254;DHT22;53339;51.378;0.094;2023-01-05T09:12:56;10.90;89.90
26254;DHT22;53339;51.378;0.094;2023-01-05T09:15:24;11.00;89.70
26254;DHT22;53339;51.378;0.094;2023-01-05T09:17:51;11.00;89.60
26254;DHT22;53339;51.378;0.094;2023-01-05T09:20:19;11.00;89.50
26254;DHT22;53339;51.378;0.094;2023-01-05T09:22:46;11.10;89.50
26254;DHT22;53339;51.378;0.094;2023-01-05T09:25:14;11.10;89.50
26254;DHT22;53339;51.378;0.094;2023-01-05T09:27:41;11.20;89.40
26254;DHT22;53339;51.378;0.094;2023-01-05T09:30:12;11.20;89.40
26254;DHT22;53339;51.378;0.094;2023-01-05T09:32:42;11.20;89.30
26254;DHT22;53339;51.378;0.094;2023-01-05T09:35:09;11.30;89.40
26254;DHT22;53339;51.378;0.094;2023-01-05T09:37:37;11.40;89.30
26254;DHT22;53339;51.378;0.094;2023-01-05T09:40:05;11.40;89.10
26254;DHT22;53339;51.378;0.094;2023-01-05T09:42:33;11.40;89.00
26254;DHT22;53339;51.378;0.094;2023-01-05T09:45:03;11.40;89.00
26254;DHT22;53339;51.378;0.094;2023-01-05T09:47:35;11.50;88.90
26254;DHT22;53339;51.378;0.094;2023-01-05T09:50:07;11.50;88.80
26254;DHT22;53339;51.378;0.094;2023-01-05T09:52:38;11.50;88.80
26254;DHT22;53339;51.378;0.094;2023-01-05T09:55:15;11.50;88.70
26254;DHT22;53339;51.378;0.094;2023-01-05T09:58:02;11.60;88.60
26254;DHT22;53339;51.378;0.094;2023-01-05T10:00:31;11.60;88.60
26254;DHT22;53339;51.378;0.094;2023-01-05T10:03:08;11.70;88.40
26254;DHT22;53339;51.378;0.094;2023-01-05T10:05:55;11.70;88.20
26254;DHT22;53339;51.378;0.094;2023-01-05T10:08:36;11.70;88.10
26254;DHT22;53339;51.378;0.094;2023-01-05T10:14:08;11.80;87.70
26254;DHT22;53339;51.378;0.094;2023-01-05T10:16:38;11.80;87.80
26254;DHT22;53339;51.378;0.094;2023-01-05T10:19:12;11.80;87.60
26254;DHT22;53339;51.378;0.094;2023-01-05T10:22:02;11.90;87.80
26254;DHT22;53339;51.378;0.094;2023-01-05T10:27:49;11.90;87.50
26254;DHT22;53339;51.378;0.094;2023-01-05T10:30:24;11.90;87.60
26254;DHT22;53339;51.378;0.094;2023-01-05T10:33:14;11.90;87.50
26254;DHT22;53339;51.378;0.094;2023-01-05T10:36:03;12.00;87.40
26254;DHT22;53339;51.378;0.094;2023-01-05T10:41:35;12.10;87.10
26254;DHT22;53339;51.378;0.094;2023-01-05T10:44:55;12.10;87.20
26254;DHT22;53339;51.378;0.094;2023-01-05T10:47:14;12.20;87.20
26254;DHT22;53339;51.378;0.094;2023-01-05T10:49:44;12.20;87.10
26254;DHT22;53339;51.378;0.094;2023-01-05T10:52:14;12.30;87.20
26254;DHT22;53339;51.378;0.094;2023-01-05T10:54:47;12.50;86.70
26254;DHT22;53339;51.378;0.094;2023-01-05T10:57:35;12.60;86.40
26254;DHT22;53339;51.378;0.094;2023-01-05T11:05:35;12.60;85.30
26254;DHT22;53339;51.378;0.094;2023-01-05T11:08:06;12.60;85.70
26254;DHT22;53339;51.378;0.094;2023-01-05T11:11:00;12.60;85.70
26254;DHT22;53339;51.378;0.094;2023-01-05T11:13:41;12.60;85.30
26254;DHT22;53339;51.378;0.094;2023-01-05T11:16:14;12.60;85.50
26254;DHT22;53339;51.378;0.094;2023-01-05T11:18:47;12.60;86.00
26254;DHT22;53339;51.378;0.094;2023-01-05T11:21:27;12.60;85.80
26254;DHT22;53339;51.378;0.094;2023-01-05T11:23:58;12.60;85.70
26254;DHT22;53339;51.378;0.094;2023-01-05T11:26:33;12.60;85.40
26254;DHT22;53339;51.378;0.094;2023-01-05T11:34:39;12.70;84.70
26254;DHT22;53339;51.378;0.094;2023-01-05T11:39:48;12.80;85.00
26254;DHT22;53339;51.378;0.094;2023-01-05T11:42:18;12.80;84.90
26254;DHT22;53339;51.378;0.094;2023-01-05T11:44:53;12.90;84.80
26254;DHT22;53339;51.378;0.094;2023-01-05T11:47:37;12.90;85.10
26254;DHT22;53339;51.378;0.094;2023-01-05T11:50:23;13.00;84.30
26254;DHT22;53339;51.378;0.094;2023-01-05T11:52:54;13.00;84.80
26254;DHT22;53339;51.378;0.094;2023-01-05T12:06:51;13.20;84.20
26254;DHT22;53339;51.378;0.094;2023-01-05T12:09:33;13.20;84.50
26254;DHT22;53339;51.378;0.094;2023-01-05T12:18:19;13.20;84.30
26254;DHT22;53339;51.378;0.094;2023-01-05T12:36:07;13.40;83.10
26254;DHT22;53339;51.378;0.094;2023-01-05T12:38:56;13.50;83.10
26254;DHT22;53339;51.378;0.094;2023-01-05T12:52:19;13.50;82.40
26254;DHT22;53339;51.378;0.094;2023-01-05T12:55:22;13.50;82.70
26254;DHT22;53339;51.378;0.094;2023-01-05T12:57:55;13.50;82.70
26254;DHT22;53339;51.378;0.094;2023-01-05T13:00:26;13.50;82.70
26254;DHT22;53339;51.378;0.094;2023-01-05T13:03:03;13.50;83.30
26254;DHT22;53339;51.378;0.094;2023-01-05T13:08:28;13.60;82.70
26254;DHT22;53339;51.378;0.094;2023-01-05T13:16:24;13.70;82.30
26254;DHT22;53339;51.378;0.094;2023-01-05T13:19:24;13.70;81.60
26254;DHT22;53339;51.378;0.094;2023-01-05T13:21:55;13.70;82.00
26254;DHT22;53339;51.378;0.094;2023-01-05T13:24:32;13.70;82.40
26254;DHT22;53339;51.378;0.094;2023-01-05T13:27:02;13.70;82.20
26254;DHT22;53339;51.378;0.094;2023-01-05T13:29:35;13.70;82.40
26254;DHT22;53339;51.378;0.094;2023-01-05T13:46:47;13.70;81.80
26254;DHT22;53339;51.378;0.094;2023-01-05T13:51:56;13.70;82.30
26254;DHT22;53339;51.378;0.094;2023-01-05T13:54:45;13.70;82.20
26254;DHT22;53339;51.378;0.094;2023-01-05T13:57:29;13.70;82.20
26254;DHT22;53339;51.378;0.094;2023-01-05T14:00:05;13.70;82.20
26254;DHT22;53339;51.378;0.094;2023-01-05T14:02:41;13.70;81.70
26254;DHT22;53339;51.378;0.094;2023-01-05T14:05:23;13.70;81.40
26254;DHT22;53339;51.378;0.094;2023-01-05T14:07:53;13.60;81.80
26254;DHT22;53339;51.378;0.094;2023-01-05T14:10:27;13.60;81.50
26254;DHT22;53339;51.378;0.094;2023-01-05T14:12:56;13.60;81.40
26254;DHT22;53339;51.378;0.094;2023-01-05T14:15:42;13.60;81.80
26254;DHT22;53339;51.378;0.094;2023-01-05T14:18:49;13.60;81.80
26254;DHT22;53339;51.378;0.094;2023-01-05T14:21:42;13.60;81.60
26254;DHT22;53339;51.378;0.094;2023-01-05T14:24:35;13.50;82.10
26254;DHT22;53339;51.378;0.094;2023-01-05T14:32:40;13.60;82.20
26254;DHT22;53339;51.378;0.094;2023-01-05T14:38:00;13.50;82.20
26254;DHT22;53339;51.378;0.094;2023-01-05T14:40:32;13.40;82.00
26254;DHT22;53339;51.378;0.094;2023-01-05T14:43:04;13.40;82.40
26254;DHT22;53339;51.378;0.094;2023-01-05T14:45:34;13.30;82.60
26254;DHT22;53339;51.378;0.094;2023-01-05T14:48:06;13.20;82.30
26254;DHT22;53339;51.378;0.094;2023-01-05T14:51:24;13.20;82.40
26254;DHT22;53339;51.378;0.094;2023-01-05T14:53:55;13.20;82.50
26254;DHT22;53339;51.378;0.094;2023-01-05T14:56:23;13.10;82.20
26254;DHT22;53339;51.378;0.094;2023-01-05T14:58:55;13.10;82.80
26254;DHT22;53339;51.378;0.094;2023-01-05T15:01:47;13.10;82.90
26254;DHT22;53339;51.378;0.094;2023-01-05T15:04:37;13.00;82.80
26254;DHT22;53339;51.378;0.094;2023-01-05T15:21:34;13.00;83.10
26254;DHT22;53339;51.378;0.094;2023-01-05T15:32:25;12.90;82.20
26254;DHT22;53339;51.378;0.094;2023-01-05T15:35:02;12.80;82.20
26254;DHT22;53339;51.378;0.094;2023-01-05T15:37:36;12.80;82.20
26254;DHT22;53339;51.378;0.094;2023-01-05T15:40:06;12.80;82.40
26254;DHT22;53339;51.378;0.094;2023-01-05T15:42:43;12.80;82.20
26254;DHT22;53339;51.378;0.094;2023-01-05T15:47:48;12.80;82.20
26254;DHT22;53339;51.378;0.094;2023-01-05T15:50:28;12.70;82.50
26254;DHT22;53339;51.378;0.094;2023-01-05T15:53:01;12.70;83.00
26254;DHT22;53339;51.378;0.094;2023-01-05T15:55:29;12.60;82.70
26254;DHT22;53339;51.378;0.094;2023-01-05T15:57:59;12.60;82.80
26254;DHT22;53339;51.378;0.094;2023-01-05T16:00:34;12.50;82.50
26254;DHT22;53339;51.378;0.094;2023-01-05T16:03:21;12.40;83.00
26254;DHT22;53339;51.378;0.094;2023-01-05T16:05:57;12.40;83.20
26254;DHT22;53339;51.378;0.094;2023-01-05T16:08:26;12.40;82.90
26254;DHT22;53339;51.378;0.094;2023-01-05T16:10:56;12.40;83.00
26254;DHT22;53339;51.378;0.094;2023-01-05T16:13:50;12.30;82.80
26254;DHT22;53339;51.378;0.094;2023-01-05T16:22:25;12.40;83.30
26254;DHT22;53339;51.378;0.094;2023-01-05T16:25:04;12.40;83.00
26254;DHT22;53339;51.378;0.094;2023-01-05T16:27:38;12.40;83.20
26254;DHT22;53339;51.378;0.094;2023-01-05T16:30:27;12.40;83.60
26254;DHT22;53339;51.378;0.094;2023-01-05T16:33:01;12.40;83.60
26254;DHT22;53339;51.378;0.094;2023-01-05T16:35:41;12.40;83.10
26254;DHT22;53339;51.378;0.094;2023-01-05T16:48:49;12.50;83.70
26254;DHT22;53339;51.378;0.094;2023-01-05T16:53:52;12.40;83.50
26254;DHT22;53339;51.378;0.094;2023-01-05T16:56:55;12.40;83.30
26254;DHT22;53339;51.378;0.094;2023-01-05T16:59:44;12.30;83.50
26254;DHT22;53339;51.378;0.094;2023-01-05T17:04:57;12.30;83.70
26254;DHT22;53339;51.378;0.094;2023-01-05T17:07:24;12.20;83.90
26254;DHT22;53339;51.378;0.094;2023-01-05T17:09:52;12.20;83.80
26254;DHT22;53339;51.378;0.094;2023-01-05T17:12:20;12.20;84.00
26254;DHT22;53339;51.378;0.094;2023-01-05T17:14:47;12.20;83.80
26254;DHT22;53339;51.378;0.094;2023-01-05T17:17:15;12.20;83.50
26254;DHT22;53339;51.378;0.094;2023-01-05T17:19:43;12.20;83.50
26254;DHT22;53339;51.378;0.094;2023-01-05T17:22:10;12.20;83.60
26254;DHT22;53339;51.378;0.094;2023-01-05T17:24:39;12.20;83.80
26254;DHT22;53339;51.378;0.094;2023-01-05T17:27:08;12.20;83.80
26254;DHT22;53339;51.378;0.094;2023-01-05T17:29:36;12.20;83.30
26254;DHT22;53339;51.378;0.094;2023-01-05T17:32:04;12.20;83.90
26254;DHT22;53339;51.378;0.094;2023-01-05T17:34:32;12.20;83.40
26254;DHT22;53339;51.378;0.094;2023-01-05T17:36:59;12.20;83.40
26254;DHT22;53339;51.378;0.094;2023-01-05T17:39:27;12.20;83.50
26254;DHT22;53339;51.378;0.094;2023-01-05T17:41:55;12.20;83.80
26254;DHT22;53339;51.378;0.094;2023-01-05T17:44:42;12.10;83.60
26254;DHT22;53339;51.378;0.094;2023-01-05T17:47:10;12.00;83.80
26254;DHT22;53339;51.378;0.094;2023-01-05T17:49:37;11.90;83.80
26254;DHT22;53339;51.378;0.094;2023-01-05T17:52:05;11.80;83.90
26254;DHT22;53339;51.378;0.094;2023-01-05T17:54:32;11.70;83.90
26254;DHT22;53339;51.378;0.094;2023-01-05T17:57:00;11.70;84.10
26254;DHT22;53339;51.378;0.094;2023-01-05T17:59:27;11.70;84.50
26254;DHT22;53339;51.378;0.094;2023-01-05T18:01:55;11.60;84.60
26254;DHT22;53339;51.378;0.094;2023-01-05T18:04:22;11.60;84.30
26254;DHT22;53339;51.378;0.094;2023-01-05T18:06:50;11.50;84.50
26254;DHT22;53339;51.378;0.094;2023-01-05T18:09:17;11.50;84.60
26254;DHT22;53339;51.378;0.094;2023-01-05T18:11:45;11.50;84.60
26254;DHT22;53339;51.378;0.094;2023-01-05T18:14:13;11.50;84.50
26254;DHT22;53339;51.378;0.094;2023-01-05T18:16:40;11.40;84.70
26254;DHT22;53339;51.378;0.094;2023-01-05T18:19:13;11.40;84.70
26254;DHT22;53339;51.378;0.094;2023-01-05T18:21:41;11.40;84.50
26254;DHT22;53339;51.378;0.094;2023-01-05T18:24:09;11.40;84.50
26254;DHT22;53339;51.378;0.094;2023-01-05T18:26:37;11.40;84.60
26254;DHT22;53339;51.378;0.094;2023-01-05T18:29:04;11.40;84.50
26254;DHT22;53339;51.378;0.094;2023-01-05T18:31:37;11.30;84.30
26254;DHT22;53339;51.378;0.094;2023-01-05T18:34:06;11.40;84.60
26254;DHT22;53339;51.378;0.094;2023-01-05T18:36:33;11.30;84.70
26254;DHT22;53339;51.378;0.094;2023-01-05T18:39:01;11.30;84.60
26254;DHT22;53339;51.378;0.094;2023-01-05T18:41:29;11.30;84.60
26254;DHT22;53339;51.378;0.094;2023-01-05T18:43:57;11.20;84.60
26254;DHT22;53339;51.378;0.094;2023-01-05T18:46:24;11.30;84.70
26254;DHT22;53339;51.378;0.094;2023-01-05T18:48:52;11.20;84.60
26254;DHT22;53339;51.378;0.094;2023-01-05T18:51:19;11.20;85.00
26254;DHT22;53339;51.378;0.094;2023-01-05T18:53:47;11.20;85.00
26254;DHT22;53339;51.378;0.094;2023-01-05T18:56:15;11.20;85.00